IBE953 GCXO-LEMD
Flight info
| Callsign | IBE953 |
|---|---|
| Flight time | N/A |
| Altitude | 38000 |
| Route | VASTO5J VASTO UN858 AKUDA DCT GIMAL DCT PESAS DCT PARKA DCT SOTUK SOTUK7A |
| Aircraft | A346/H-SDE2E3FGHIJ3J4J5M1RWXY/LB1D1 |
Departure
| Time | 2026-05-07 13:17 |
|---|---|
| Airport | Tenerife Norte-Ciudad de La Laguna Airport (GCXO) |
Arrival
| Time | N/A |
|---|---|
| Airport | Adolfo Suárez Madrid–Barajas Airport (LEMD) |
| Time | Latitude | Longitude | Altitude | Speed | Heading |
|---|---|---|---|---|---|
| 2026-05-07 12:47 | 28.48600 | -16.34484 | 2072 ft | 0 kts | 20° |
| 2026-05-07 13:09 | 28.48577 | -16.34494 | 2073 ft | 4 kts | 20° |
| 2026-05-07 13:09 | 28.48552 | -16.34505 | 2073 ft | 4 kts | 20° |
| 2026-05-07 13:10 | 28.48531 | -16.34514 | 2073 ft | 4 kts | 24° |
| 2026-05-07 13:10 | 28.48515 | -16.34527 | 2073 ft | 4 kts | 57° |
| 2026-05-07 13:10 | 28.48511 | -16.34540 | 2068 ft | 4 kts | 102° |
| 2026-05-07 13:10 | 28.48518 | -16.34565 | 2071 ft | 4 kts | 110° |
| 2026-05-07 13:11 | 28.48526 | -16.34588 | 2072 ft | 0 kts | 110° |
| 2026-05-07 13:13 | 28.48524 | -16.34583 | 2072 ft | 3 kts | 110° |
| 2026-05-07 13:13 | 28.48511 | -16.34543 | 2069 ft | 8 kts | 110° |
| 2026-05-07 13:13 | 28.48483 | -16.34459 | 2070 ft | 14 kts | 111° |
| 2026-05-07 13:13 | 28.48441 | -16.34334 | 2065 ft | 20 kts | 111° |
| 2026-05-07 13:14 | 28.48387 | -16.34172 | 2060 ft | 24 kts | 110° |
| 2026-05-07 13:14 | 28.48323 | -16.33975 | 2052 ft | 28 kts | 110° |
| 2026-05-07 13:14 | 28.48251 | -16.33758 | 2049 ft | 30 kts | 110° |
| 2026-05-07 13:14 | 28.48175 | -16.33528 | 2046 ft | 32 kts | 110° |
| 2026-05-07 13:15 | 28.48096 | -16.33289 | 2040 ft | 33 kts | 110° |
| 2026-05-07 13:15 | 28.48012 | -16.33036 | 2037 ft | 35 kts | 111° |
| 2026-05-07 13:15 | 28.47925 | -16.32777 | 2033 ft | 29 kts | 111° |
| 2026-05-07 13:15 | 28.47875 | -16.32626 | 2027 ft | 18 kts | 111° |
| 2026-05-07 13:16 | 28.47794 | -16.32538 | 2030 ft | 12 kts | 172° |
| 2026-05-07 13:16 | 28.47753 | -16.32599 | 2025 ft | 11 kts | 280° |
| 2026-05-07 13:16 | 28.47797 | -16.32734 | 2029 ft | 38 kts | 290° |
| 2026-05-07 13:16 | 28.47969 | -16.33251 | 2040 ft | 99 kts | 290° |
| 2026-05-07 13:17 | 28.48275 | -16.34178 | 2062 ft | 149 kts | 290° |
| 2026-05-07 13:17 | 28.48672 | -16.35387 | 2390 ft | 164 kts | 293° |
| 2026-05-07 13:17 | 28.49036 | -16.36581 | 3119 ft | 159 kts | 290° |
| 2026-05-07 13:17 | 28.49380 | -16.37786 | 3609 ft | 165 kts | 290° |
| 2026-05-07 13:18 | 28.49758 | -16.39097 | 3948 ft | 182 kts | 289° |
| 2026-05-07 13:18 | 28.50177 | -16.40510 | 4275 ft | 199 kts | 290° |
| 2026-05-07 13:18 | 28.50672 | -16.42052 | 4624 ft | 216 kts | 291° |
| 2026-05-07 13:18 | 28.51227 | -16.43716 | 4957 ft | 234 kts | 291° |
| 2026-05-07 13:19 | 28.51836 | -16.45521 | 5310 ft | 254 kts | 291° |
| 2026-05-07 13:19 | 28.52499 | -16.47442 | 5957 ft | 264 kts | 291° |
| 2026-05-07 13:19 | 28.53192 | -16.49371 | 6886 ft | 262 kts | 291° |
| 2026-05-07 13:19 | 28.53912 | -16.51277 | 7753 ft | 264 kts | 297° |
| 2026-05-07 13:20 | 28.55120 | -16.52874 | 8515 ft | 274 kts | 322° |
| 2026-05-07 13:20 | 28.56883 | -16.53752 | 9327 ft | 283 kts | 347° |
| 2026-05-07 13:20 | 28.58869 | -16.53687 | 10147 ft | 293 kts | 13° |
| 2026-05-07 13:20 | 28.60723 | -16.52621 | 10783 ft | 310 kts | 37° |
| 2026-05-07 13:21 | 28.62146 | -16.50683 | 11218 ft | 332 kts | 61° |
| 2026-05-07 13:21 | 28.62854 | -16.48113 | 11624 ft | 351 kts | 84° |
| 2026-05-07 13:21 | 28.62683 | -16.45283 | 12008 ft | 368 kts | 106° |
| 2026-05-07 13:21 | 28.61672 | -16.42548 | 12427 ft | 382 kts | 121° |
| 2026-05-07 13:22 | 28.60289 | -16.39886 | 12836 ft | 399 kts | 124° |
| 2026-05-07 13:22 | 28.58817 | -16.37139 | 13420 ft | 409 kts | 123° |
| 2026-05-07 13:22 | 28.57369 | -16.34328 | 14178 ft | 414 kts | 123° |
| 2026-05-07 13:22 | 28.55939 | -16.31460 | 14867 ft | 418 kts | 123° |
| 2026-05-07 13:23 | 28.54710 | -16.28423 | 15440 ft | 429 kts | 109° |
| 2026-05-07 13:23 | 28.54293 | -16.25028 | 16000 ft | 439 kts | 90° |
| 2026-05-07 13:23 | 28.54782 | -16.21574 | 16618 ft | 445 kts | 75° |
| 2026-05-07 13:23 | 28.55614 | -16.18160 | 17294 ft | 450 kts | 74° |
| 2026-05-07 13:24 | 28.56490 | -16.14708 | 17848 ft | 457 kts | 74° |
| 2026-05-07 13:24 | 28.57367 | -16.11200 | 18409 ft | 464 kts | 75° |
| 2026-05-07 13:24 | 28.58239 | -16.07641 | 18919 ft | 469 kts | 75° |
| 2026-05-07 13:24 | 28.59106 | -16.04043 | 19462 ft | 473 kts | 75° |
| 2026-05-07 13:25 | 28.59973 | -16.00407 | 20032 ft | 478 kts | 75° |
| 2026-05-07 13:25 | 28.60833 | -15.96790 | 20572 ft | 481 kts | 75° |
| 2026-05-07 13:25 | 28.61710 | -15.93091 | 21149 ft | 485 kts | 75° |
| 2026-05-07 13:25 | 28.62590 | -15.89367 | 21715 ft | 489 kts | 75° |
| 2026-05-07 13:26 | 28.63479 | -15.85606 | 22277 ft | 493 kts | 75° |
| 2026-05-07 13:26 | 28.64373 | -15.81814 | 22832 ft | 498 kts | 75° |
| 2026-05-07 13:26 | 28.65274 | -15.77991 | 23371 ft | 502 kts | 75° |
| 2026-05-07 13:26 | 28.66182 | -15.74132 | 23866 ft | 506 kts | 75° |
| 2026-05-07 13:27 | 28.67096 | -15.70239 | 24330 ft | 510 kts | 75° |
| 2026-05-07 13:27 | 28.68014 | -15.66325 | 24801 ft | 514 kts | 75° |
| 2026-05-07 13:27 | 28.68939 | -15.62376 | 25283 ft | 517 kts | 75° |
| 2026-05-07 13:27 | 28.69869 | -15.58405 | 25773 ft | 520 kts | 75° |
| 2026-05-07 13:28 | 28.70801 | -15.54414 | 26245 ft | 523 kts | 75° |
| 2026-05-07 13:28 | 28.71740 | -15.50386 | 26702 ft | 527 kts | 75° |
| 2026-05-07 13:28 | 28.72685 | -15.46331 | 27154 ft | 530 kts | 75° |
| 2026-05-07 13:28 | 28.73634 | -15.42252 | 27593 ft | 533 kts | 75° |
| 2026-05-07 13:29 | 28.74587 | -15.38150 | 28017 ft | 537 kts | 75° |
| 2026-05-07 13:29 | 28.75543 | -15.34028 | 28486 ft | 540 kts | 75° |
| 2026-05-07 13:29 | 28.76503 | -15.29886 | 29083 ft | 539 kts | 75° |
| 2026-05-07 13:29 | 28.77455 | -15.25764 | 29786 ft | 536 kts | 75° |
| 2026-05-07 13:30 | 28.78404 | -15.21653 | 30422 ft | 535 kts | 74° |
| 2026-05-07 13:30 | 28.79346 | -15.17571 | 30946 ft | 534 kts | 74° |
| 2026-05-07 13:30 | 28.80268 | -15.13568 | 31461 ft | 533 kts | 74° |
| 2026-05-07 13:30 | 28.81176 | -15.09620 | 31964 ft | 533 kts | 74° |
| 2026-05-07 13:31 | 28.82095 | -15.05623 | 32487 ft | 532 kts | 74° |
| 2026-05-07 13:31 | 28.83030 | -15.01544 | 33002 ft | 531 kts | 74° |
| 2026-05-07 13:31 | 28.83962 | -14.97472 | 33522 ft | 530 kts | 73° |
| 2026-05-07 13:31 | 28.84932 | -14.93431 | 34026 ft | 529 kts | 70° |
| 2026-05-07 13:32 | 28.86261 | -14.89524 | 34458 ft | 525 kts | 62° |
| 2026-05-07 13:32 | 28.87988 | -14.85912 | 34896 ft | 519 kts | 53° |
| 2026-05-07 13:32 | 28.90076 | -14.82634 | 35326 ft | 512 kts | 45° |
| 2026-05-07 13:32 | 28.92499 | -14.79702 | 35751 ft | 504 kts | 36° |
| 2026-05-07 13:33 | 28.95180 | -14.77180 | 36178 ft | 495 kts | 28° |
| 2026-05-07 13:33 | 28.98013 | -14.74983 | 36594 ft | 491 kts | 26° |
| 2026-05-07 13:33 | 29.00879 | -14.72861 | 36968 ft | 490 kts | 25° |
| 2026-05-07 13:33 | 29.03777 | -14.70725 | 37216 ft | 492 kts | 25° |
| 2026-05-07 13:34 | 29.06655 | -14.68590 | 37446 ft | 494 kts | 25° |
| 2026-05-07 13:34 | 29.12412 | -14.64266 | 37967 ft | 496 kts | 25° |
| 2026-05-07 13:35 | 29.18173 | -14.59899 | 38044 ft | 497 kts | 26° |
| 2026-05-07 13:35 | 29.23937 | -14.55518 | 38051 ft | 497 kts | 26° |
| 2026-05-07 13:36 | 29.29692 | -14.51132 | 38048 ft | 497 kts | 26° |
| 2026-05-07 13:36 | 29.35461 | -14.46728 | 38062 ft | 499 kts | 26° |
| 2026-05-07 13:37 | 29.41243 | -14.42310 | 38050 ft | 500 kts | 26° |
| 2026-05-07 13:37 | 29.47032 | -14.37880 | 38050 ft | 500 kts | 26° |
| 2026-05-07 13:38 | 29.52818 | -14.33446 | 38050 ft | 500 kts | 26° |
| 2026-05-07 13:38 | 29.58598 | -14.29010 | 38050 ft | 500 kts | 26° |
| 2026-05-07 13:39 | 29.64346 | -14.24594 | 38066 ft | 501 kts | 26° |
| 2026-05-07 13:39 | 29.70156 | -14.20127 | 38048 ft | 502 kts | 26° |
| 2026-05-07 13:40 | 29.75963 | -14.15650 | 38053 ft | 502 kts | 26° |
| 2026-05-07 13:40 | 29.81761 | -14.11172 | 38053 ft | 502 kts | 26° |
| 2026-05-07 13:41 | 29.87565 | -14.06684 | 38051 ft | 502 kts | 26° |
| 2026-05-07 13:41 | 29.93366 | -14.02193 | 38047 ft | 502 kts | 26° |
| 2026-05-07 13:42 | 29.99164 | -13.97697 | 38051 ft | 502 kts | 26° |
| 2026-05-07 13:42 | 30.04955 | -13.93200 | 38052 ft | 502 kts | 26° |
| 2026-05-07 13:43 | 30.10757 | -13.88689 | 38047 ft | 502 kts | 26° |
| 2026-05-07 13:43 | 30.15578 | -13.84936 | 38066 ft | 502 kts | 27° |
| 2026-05-07 13:44 | 30.21360 | -13.80427 | 38050 ft | 500 kts | 27° |
| 2026-05-07 13:44 | 30.27142 | -13.75916 | 38057 ft | 503 kts | 27° |
| 2026-05-07 13:45 | 30.32945 | -13.71378 | 38052 ft | 503 kts | 27° |
| 2026-05-07 13:45 | 30.38741 | -13.66838 | 38048 ft | 503 kts | 27° |
| 2026-05-07 13:46 | 30.44549 | -13.62283 | 38049 ft | 503 kts | 27° |
| 2026-05-07 13:46 | 30.50312 | -13.57757 | 38048 ft | 503 kts | 27° |
| 2026-05-07 13:47 | 30.56106 | -13.53171 | 38049 ft | 506 kts | 27° |
| 2026-05-07 13:47 | 30.61919 | -13.48539 | 38044 ft | 507 kts | 27° |
| 2026-05-07 13:48 | 30.67723 | -13.43906 | 38046 ft | 505 kts | 27° |
| 2026-05-07 13:48 | 30.73514 | -13.39282 | 38047 ft | 505 kts | 27° |
| 2026-05-07 13:49 | 30.79300 | -13.34657 | 38043 ft | 505 kts | 27° |
| 2026-05-07 13:49 | 30.85060 | -13.30048 | 38062 ft | 506 kts | 27° |
| 2026-05-07 13:50 | 30.90771 | -13.25468 | 38050 ft | 507 kts | 28° |
| 2026-05-07 13:50 | 30.96421 | -13.20964 | 38043 ft | 507 kts | 27° |
| 2026-05-07 13:51 | 31.02188 | -13.16386 | 38043 ft | 507 kts | 27° |
| 2026-05-07 13:51 | 31.07757 | -13.11958 | 38042 ft | 506 kts | 27° |
| 2026-05-07 13:52 | 31.13423 | -13.07443 | 38080 ft | 505 kts | 28° |
| 2026-05-07 13:52 | 31.19240 | -13.02804 | 38048 ft | 507 kts | 28° |
| 2026-05-07 13:53 | 31.25061 | -12.98147 | 38041 ft | 508 kts | 28° |
| 2026-05-07 13:53 | 31.30899 | -12.93469 | 38037 ft | 508 kts | 28° |
| 2026-05-07 13:54 | 31.36733 | -12.88789 | 38038 ft | 508 kts | 28° |
| 2026-05-07 13:54 | 31.42561 | -12.84108 | 38061 ft | 508 kts | 28° |
| 2026-05-07 13:55 | 31.48410 | -12.79410 | 38040 ft | 510 kts | 29° |
| 2026-05-07 13:55 | 31.54269 | -12.74680 | 38032 ft | 510 kts | 28° |
| 2026-05-07 13:56 | 31.60077 | -12.69991 | 38030 ft | 510 kts | 28° |
| 2026-05-07 13:56 | 31.65934 | -12.65260 | 38049 ft | 510 kts | 28° |
| 2026-05-07 13:57 | 31.71777 | -12.60531 | 38030 ft | 510 kts | 28° |
| 2026-05-07 13:57 | 31.77637 | -12.55785 | 38041 ft | 512 kts | 29° |
| 2026-05-07 13:58 | 31.83492 | -12.51027 | 38037 ft | 512 kts | 29° |
| 2026-05-07 13:58 | 31.89350 | -12.46262 | 38034 ft | 512 kts | 29° |
| 2026-05-07 13:59 | 31.95211 | -12.41487 | 38037 ft | 512 kts | 29° |
| 2026-05-07 13:59 | 32.01053 | -12.36731 | 38036 ft | 509 kts | 29° |
| 2026-05-07 14:00 | 32.06892 | -12.31983 | 38034 ft | 512 kts | 29° |
| 2026-05-07 14:00 | 32.12680 | -12.27265 | 38034 ft | 513 kts | 29° |
| 2026-05-07 14:01 | 32.18364 | -12.22623 | 38031 ft | 513 kts | 29° |
| 2026-05-07 14:01 | 32.24238 | -12.17818 | 38026 ft | 513 kts | 29° |
| 2026-05-07 14:02 | 32.30106 | -12.13012 | 38024 ft | 513 kts | 29° |
| 2026-05-07 14:02 | 32.35975 | -12.08200 | 38031 ft | 513 kts | 30° |
| 2026-05-07 14:03 | 32.41835 | -12.03383 | 38016 ft | 513 kts | 30° |
| 2026-05-07 14:03 | 32.47674 | -11.98576 | 38022 ft | 512 kts | 30° |
| 2026-05-07 14:04 | 32.53518 | -11.93759 | 38023 ft | 512 kts | 30° |
| 2026-05-07 14:04 | 32.59360 | -11.88935 | 38062 ft | 512 kts | 30° |
| 2026-05-07 14:05 | 32.65239 | -11.84076 | 38029 ft | 517 kts | 30° |
| 2026-05-07 14:05 | 32.71145 | -11.79183 | 38024 ft | 518 kts | 30° |
| 2026-05-07 14:06 | 32.77056 | -11.74276 | 38020 ft | 518 kts | 30° |
| 2026-05-07 14:06 | 32.82953 | -11.69373 | 38020 ft | 518 kts | 30° |
| 2026-05-07 14:07 | 32.88855 | -11.64460 | 38018 ft | 518 kts | 30° |
| 2026-05-07 14:07 | 32.94754 | -11.59541 | 38015 ft | 518 kts | 30° |
| 2026-05-07 14:08 | 33.00650 | -11.54616 | 38018 ft | 518 kts | 30° |
| 2026-05-07 14:08 | 33.06543 | -11.49686 | 38016 ft | 518 kts | 30° |
| 2026-05-07 14:09 | 33.12448 | -11.44737 | 38005 ft | 518 kts | 30° |
| 2026-05-07 14:09 | 33.18335 | -11.39791 | 38027 ft | 518 kts | 30° |
| 2026-05-07 14:10 | 33.24222 | -11.34807 | 38019 ft | 518 kts | 30° |
| 2026-05-07 14:10 | 33.30098 | -11.29817 | 38021 ft | 516 kts | 30° |
| 2026-05-07 14:11 | 33.35936 | -11.24852 | 38018 ft | 514 kts | 30° |
| 2026-05-07 14:11 | 33.41769 | -11.19888 | 38018 ft | 514 kts | 30° |
| 2026-05-07 14:12 | 33.47608 | -11.14912 | 38024 ft | 516 kts | 30° |
| 2026-05-07 14:12 | 33.53462 | -11.09913 | 38020 ft | 517 kts | 30° |
| 2026-05-07 14:13 | 33.59329 | -11.04892 | 38018 ft | 518 kts | 30° |
| 2026-05-07 14:13 | 33.65181 | -10.99875 | 38015 ft | 518 kts | 30° |
| 2026-05-07 14:14 | 33.71005 | -10.94875 | 38017 ft | 518 kts | 30° |
| 2026-05-07 14:14 | 33.76851 | -10.89840 | 38017 ft | 519 kts | 30° |
| 2026-05-07 14:15 | 33.82691 | -10.84812 | 38011 ft | 519 kts | 30° |
| 2026-05-07 14:15 | 33.88508 | -10.79795 | 38012 ft | 519 kts | 30° |
| 2026-05-07 14:16 | 33.94305 | -10.74784 | 38012 ft | 519 kts | 30° |
| 2026-05-07 14:16 | 34.00170 | -10.69706 | 38011 ft | 519 kts | 30° |
| 2026-05-07 14:17 | 34.06046 | -10.64608 | 38027 ft | 521 kts | 30° |
| 2026-05-07 14:17 | 34.11936 | -10.59491 | 38009 ft | 522 kts | 30° |
| 2026-05-07 14:18 | 34.17822 | -10.54367 | 38008 ft | 520 kts | 30° |
| 2026-05-07 14:18 | 34.23679 | -10.49258 | 38006 ft | 518 kts | 30° |
| 2026-05-07 14:19 | 34.29526 | -10.44151 | 38025 ft | 518 kts | 31° |
| 2026-05-07 14:19 | 34.35378 | -10.39033 | 38011 ft | 519 kts | 31° |
| 2026-05-07 14:20 | 34.41239 | -10.33893 | 38012 ft | 520 kts | 31° |
| 2026-05-07 14:20 | 34.47095 | -10.28750 | 38008 ft | 520 kts | 31° |
| 2026-05-07 14:21 | 34.52904 | -10.23640 | 38006 ft | 520 kts | 31° |
| 2026-05-07 14:21 | 34.58760 | -10.18475 | 38023 ft | 519 kts | 31° |
| 2026-05-07 14:22 | 34.64606 | -10.13321 | 38008 ft | 518 kts | 30° |
| 2026-05-07 14:22 | 34.70449 | -10.08191 | 38003 ft | 518 kts | 30° |
| 2026-05-07 14:23 | 34.76295 | -10.03049 | 38001 ft | 518 kts | 30° |
| 2026-05-07 14:23 | 34.82129 | -9.97905 | 38001 ft | 519 kts | 30° |
| 2026-05-07 14:24 | 34.87982 | -9.92736 | 38005 ft | 520 kts | 31° |
| 2026-05-07 14:24 | 34.93848 | -9.87544 | 38002 ft | 521 kts | 31° |
| 2026-05-07 14:25 | 34.99706 | -9.82348 | 37990 ft | 521 kts | 30° |
| 2026-05-07 14:25 | 35.05531 | -9.77167 | 37997 ft | 518 kts | 30° |
| 2026-05-07 14:26 | 35.11309 | -9.72029 | 38033 ft | 517 kts | 30° |
| 2026-05-07 14:26 | 35.17096 | -9.66873 | 38003 ft | 518 kts | 30° |
| 2026-05-07 14:27 | 35.22851 | -9.61733 | 37994 ft | 518 kts | 30° |
| 2026-05-07 14:27 | 35.28620 | -9.56572 | 37994 ft | 518 kts | 30° |
| 2026-05-07 14:28 | 35.34442 | -9.51353 | 37993 ft | 518 kts | 30° |
| 2026-05-07 14:28 | 35.40244 | -9.46144 | 38003 ft | 518 kts | 30° |
| 2026-05-07 14:29 | 35.45990 | -9.40973 | 37992 ft | 516 kts | 30° |
| 2026-05-07 14:29 | 35.51584 | -9.35931 | 37985 ft | 516 kts | 30° |
| 2026-05-07 14:30 | 35.57303 | -9.30770 | 37985 ft | 516 kts | 30° |
| 2026-05-07 14:30 | 35.63086 | -9.25539 | 37985 ft | 516 kts | 31° |
| 2026-05-07 14:31 | 35.68869 | -9.20299 | 37985 ft | 516 kts | 31° |
| 2026-05-07 14:31 | 35.74650 | -9.15052 | 37980 ft | 516 kts | 31° |
| 2026-05-07 14:32 | 35.80387 | -9.09833 | 37982 ft | 516 kts | 31° |
| 2026-05-07 14:32 | 35.86154 | -9.04576 | 37980 ft | 514 kts | 31° |
| 2026-05-07 14:33 | 35.91901 | -8.99331 | 37997 ft | 514 kts | 31° |
| 2026-05-07 14:33 | 35.97551 | -8.93889 | 37978 ft | 518 kts | 36° |
| 2026-05-07 14:34 | 36.02856 | -8.87830 | 37972 ft | 520 kts | 38° |
| 2026-05-07 14:34 | 36.08097 | -8.81650 | 37972 ft | 520 kts | 38° |
| 2026-05-07 14:35 | 36.12460 | -8.76512 | 37976 ft | 520 kts | 38° |
| 2026-05-07 14:35 | 36.17712 | -8.70336 | 37973 ft | 520 kts | 38° |
| 2026-05-07 14:36 | 36.22950 | -8.64170 | 37979 ft | 519 kts | 38° |
| 2026-05-07 14:36 | 36.28190 | -8.57998 | 37971 ft | 519 kts | 38° |
| 2026-05-07 14:37 | 36.33420 | -8.51825 | 37965 ft | 519 kts | 38° |
| 2026-05-07 14:37 | 36.41260 | -8.42545 | 37963 ft | 519 kts | 38° |
| 2026-05-07 14:38 | 36.46488 | -8.36342 | 37989 ft | 519 kts | 38° |
| 2026-05-07 14:38 | 36.51711 | -8.30128 | 37967 ft | 519 kts | 38° |
| 2026-05-07 14:39 | 36.56930 | -8.23913 | 37956 ft | 519 kts | 38° |
| 2026-05-07 14:39 | 36.62147 | -8.17688 | 37951 ft | 519 kts | 38° |
| 2026-05-07 14:40 | 36.67359 | -8.11454 | 37954 ft | 519 kts | 38° |
| 2026-05-07 14:40 | 36.72497 | -8.05106 | 37953 ft | 522 kts | 42° |
| 2026-05-07 14:41 | 36.77124 | -7.98055 | 37936 ft | 529 kts | 50° |
| 2026-05-07 14:41 | 36.81059 | -7.90256 | 37934 ft | 533 kts | 57° |
| 2026-05-07 14:42 | 36.84581 | -7.82166 | 37932 ft | 533 kts | 58° |
| 2026-05-07 14:42 | 36.88115 | -7.74004 | 37932 ft | 533 kts | 58° |
| 2026-05-07 14:43 | 36.91669 | -7.65861 | 37930 ft | 533 kts | 58° |
| 2026-05-07 14:43 | 36.95227 | -7.57710 | 37938 ft | 533 kts | 58° |
| 2026-05-07 14:44 | 36.98777 | -7.49564 | 37932 ft | 532 kts | 57° |
| 2026-05-07 14:44 | 37.02699 | -7.41756 | 37935 ft | 528 kts | 50° |
| 2026-05-07 14:45 | 37.07315 | -7.34669 | 37928 ft | 522 kts | 41° |
| 2026-05-07 14:45 | 37.12523 | -7.28402 | 37920 ft | 517 kts | 35° |
| 2026-05-07 14:46 | 37.17951 | -7.22484 | 37919 ft | 517 kts | 35° |